sensor_id;sensor_type;location;lat;lon;timestamp;P1;durP1;ratioP1;P2;durP2;ratioP2
60867;SDS011;46702;48.370;10.794;2023-08-30T00:01:06;8.80;;;7.25;;
60867;SDS011;46702;48.370;10.794;2023-08-30T00:03:33;7.28;;;6.45;;
60867;SDS011;46702;48.370;10.794;2023-08-30T00:06:02;8.38;;;6.22;;
60867;SDS011;46702;48.370;10.794;2023-08-30T00:08:29;7.78;;;6.30;;
60867;SDS011;46702;48.370;10.794;2023-08-30T00:10:55;7.25;;;6.55;;
60867;SDS011;46702;48.370;10.794;2023-08-30T00:13:23;7.53;;;6.22;;
60867;SDS011;46702;48.370;10.794;2023-08-30T00:15:50;7.80;;;6.40;;
60867;SDS011;46702;48.370;10.794;2023-08-30T00:18:16;7.93;;;6.63;;
60867;SDS011;46702;48.370;10.794;2023-08-30T00:20:46;6.80;;;6.13;;
60867;SDS011;46702;48.370;10.794;2023-08-30T00:23:12;10.77;;;7.05;;
60867;SDS011;46702;48.370;10.794;2023-08-30T00:25:39;9.95;;;6.40;;
60867;SDS011;46702;48.370;10.794;2023-08-30T00:28:06;8.18;;;6.00;;
60867;SDS011;46702;48.370;10.794;2023-08-30T00:30:32;7.30;;;6.05;;
60867;SDS011;46702;48.370;10.794;2023-08-30T00:32:58;7.78;;;6.53;;
60867;SDS011;46702;48.370;10.794;2023-08-30T00:35:24;8.68;;;6.60;;
60867;SDS011;46702;48.370;10.794;2023-08-30T00:37:50;8.48;;;6.63;;
60867;SDS011;46702;48.370;10.794;2023-08-30T00:40:16;10.00;;;6.82;;
60867;SDS011;46702;48.370;10.794;2023-08-30T00:42:42;6.68;;;5.97;;
60867;SDS011;46702;48.370;10.794;2023-08-30T00:45:09;8.05;;;6.93;;
60867;SDS011;46702;48.370;10.794;2023-08-30T00:47:35;8.52;;;6.50;;
60867;SDS011;46702;48.370;10.794;2023-08-30T00:50:01;8.40;;;6.65;;
60867;SDS011;46702;48.370;10.794;2023-08-30T00:52:28;9.45;;;7.15;;
60867;SDS011;46702;48.370;10.794;2023-08-30T00:54:53;7.72;;;6.65;;
60867;SDS011;46702;48.370;10.794;2023-08-30T00:57:19;10.80;;;7.10;;
60867;SDS011;46702;48.370;10.794;2023-08-30T00:59:46;8.15;;;6.20;;
60867;SDS011;46702;48.370;10.794;2023-08-30T01:02:14;9.88;;;7.15;;
60867;SDS011;46702;48.370;10.794;2023-08-30T01:04:40;9.25;;;6.93;;
60867;SDS011;46702;48.370;10.794;2023-08-30T01:07:05;9.00;;;6.82;;
60867;SDS011;46702;48.370;10.794;2023-08-30T01:09:31;7.53;;;6.72;;
60867;SDS011;46702;48.370;10.794;2023-08-30T01:12:04;10.85;;;7.72;;
60867;SDS011;46702;48.370;10.794;2023-08-30T01:17:47;9.18;;;6.95;;
60867;SDS011;46702;48.370;10.794;2023-08-30T01:20:14;10.02;;;7.00;;
60867;SDS011;46702;48.370;10.794;2023-08-30T01:25:27;9.52;;;7.43;;
60867;SDS011;46702;48.370;10.794;2023-08-30T01:28:03;9.07;;;7.22;;
60867;SDS011;46702;48.370;10.794;2023-08-30T01:30:33;9.82;;;7.43;;
60867;SDS011;46702;48.370;10.794;2023-08-30T01:33:02;12.30;;;6.57;;
60867;SDS011;46702;48.370;10.794;2023-08-30T01:35:29;10.40;;;7.53;;
60867;SDS011;46702;48.370;10.794;2023-08-30T01:38:01;9.00;;;7.22;;
60867;SDS011;46702;48.370;10.794;2023-08-30T01:40:28;7.47;;;6.43;;
60867;SDS011;46702;48.370;10.794;2023-08-30T01:42:58;8.57;;;6.95;;
60867;SDS011;46702;48.370;10.794;2023-08-30T01:45:25;8.57;;;6.80;;
60867;SDS011;46702;48.370;10.794;2023-08-30T01:47:52;8.15;;;6.65;;
60867;SDS011;46702;48.370;10.794;2023-08-30T01:50:19;9.57;;;7.10;;
60867;SDS011;46702;48.370;10.794;2023-08-30T01:52:45;9.15;;;7.10;;
60867;SDS011;46702;48.370;10.794;2023-08-30T01:55:13;6.78;;;5.68;;
60867;SDS011;46702;48.370;10.794;2023-08-30T01:57:39;9.48;;;7.63;;
60867;SDS011;46702;48.370;10.794;2023-08-30T02:00:05;8.02;;;6.45;;
60867;SDS011;46702;48.370;10.794;2023-08-30T02:02:32;10.25;;;6.53;;
60867;SDS011;46702;48.370;10.794;2023-08-30T02:04:58;8.73;;;6.38;;
60867;SDS011;46702;48.370;10.794;2023-08-30T02:08:09;9.32;;;7.43;;
60867;SDS011;46702;48.370;10.794;2023-08-30T02:10:23;7.68;;;6.55;;
60867;SDS011;46702;48.370;10.794;2023-08-30T02:12:58;9.73;;;7.15;;
60867;SDS011;46702;48.370;10.794;2023-08-30T02:15:25;8.77;;;7.15;;
60867;SDS011;46702;48.370;10.794;2023-08-30T02:17:52;10.07;;;7.50;;
60867;SDS011;46702;48.370;10.794;2023-08-30T02:20:19;9.02;;;6.80;;
60867;SDS011;46702;48.370;10.794;2023-08-30T02:22:44;9.93;;;7.32;;
60867;SDS011;46702;48.370;10.794;2023-08-30T02:25:10;7.75;;;6.72;;
60867;SDS011;46702;48.370;10.794;2023-08-30T02:27:35;9.77;;;7.53;;
60867;SDS011;46702;48.370;10.794;2023-08-30T02:30:02;9.60;;;7.25;;
60867;SDS011;46702;48.370;10.794;2023-08-30T02:32:28;10.20;;;7.10;;
60867;SDS011;46702;48.370;10.794;2023-08-30T02:34:54;8.02;;;6.93;;
60867;SDS011;46702;48.370;10.794;2023-08-30T02:37:20;9.57;;;7.53;;
60867;SDS011;46702;48.370;10.794;2023-08-30T02:39:46;8.95;;;6.78;;
60867;SDS011;46702;48.370;10.794;2023-08-30T02:42:12;9.18;;;7.55;;
60867;SDS011;46702;48.370;10.794;2023-08-30T02:44:37;9.18;;;7.22;;
60867;SDS011;46702;48.370;10.794;2023-08-30T02:47:03;8.40;;;6.80;;
60867;SDS011;46702;48.370;10.794;2023-08-30T02:49:29;9.45;;;7.40;;
60867;SDS011;46702;48.370;10.794;2023-08-30T02:51:54;8.55;;;6.95;;
60867;SDS011;46702;48.370;10.794;2023-08-30T02:54:20;10.07;;;7.57;;
60867;SDS011;46702;48.370;10.794;2023-08-30T02:56:47;9.35;;;7.35;;
60867;SDS011;46702;48.370;10.794;2023-08-30T02:59:14;9.80;;;7.65;;
60867;SDS011;46702;48.370;10.794;2023-08-30T03:01:39;8.90;;;7.43;;
60867;SDS011;46702;48.370;10.794;2023-08-30T03:04:05;8.82;;;6.88;;
60867;SDS011;46702;48.370;10.794;2023-08-30T03:06:32;8.60;;;6.82;;
60867;SDS011;46702;48.370;10.794;2023-08-30T03:08:58;9.52;;;6.85;;
60867;SDS011;46702;48.370;10.794;2023-08-30T03:11:25;8.38;;;6.80;;
60867;SDS011;46702;48.370;10.794;2023-08-30T03:13:50;8.50;;;6.93;;
60867;SDS011;46702;48.370;10.794;2023-08-30T03:16:18;9.65;;;6.40;;
60867;SDS011;46702;48.370;10.794;2023-08-30T03:18:44;9.88;;;7.68;;
60867;SDS011;46702;48.370;10.794;2023-08-30T03:21:10;8.48;;;6.57;;
60867;SDS011;46702;48.370;10.794;2023-08-30T03:23:36;12.10;;;7.35;;
60867;SDS011;46702;48.370;10.794;2023-08-30T03:26:13;11.45;;;7.28;;
60867;SDS011;46702;48.370;10.794;2023-08-30T03:28:40;10.50;;;7.90;;
60867;SDS011;46702;48.370;10.794;2023-08-30T03:31:13;9.48;;;6.75;;
60867;SDS011;46702;48.370;10.794;2023-08-30T03:33:39;9.07;;;6.70;;
60867;SDS011;46702;48.370;10.794;2023-08-30T03:36:06;8.70;;;6.68;;
60867;SDS011;46702;48.370;10.794;2023-08-30T03:38:34;8.80;;;7.00;;
60867;SDS011;46702;48.370;10.794;2023-08-30T03:41:00;9.18;;;6.80;;
60867;SDS011;46702;48.370;10.794;2023-08-30T03:43:25;10.38;;;7.30;;
60867;SDS011;46702;48.370;10.794;2023-08-30T03:45:51;7.95;;;6.68;;
60867;SDS011;46702;48.370;10.794;2023-08-30T03:48:17;10.77;;;7.60;;
60867;SDS011;46702;48.370;10.794;2023-08-30T03:50:43;9.25;;;6.88;;
60867;SDS011;46702;48.370;10.794;2023-08-30T03:53:08;8.82;;;6.90;;
60867;SDS011;46702;48.370;10.794;2023-08-30T03:55:34;9.82;;;6.90;;
60867;SDS011;46702;48.370;10.794;2023-08-30T03:57:59;8.43;;;6.63;;
60867;SDS011;46702;48.370;10.794;2023-08-30T04:00:25;9.57;;;6.97;;
60867;SDS011;46702;48.370;10.794;2023-08-30T04:02:51;9.50;;;7.07;;
60867;SDS011;46702;48.370;10.794;2023-08-30T04:05:16;10.23;;;7.63;;
60867;SDS011;46702;48.370;10.794;2023-08-30T04:07:42;10.70;;;7.15;;
60867;SDS011;46702;48.370;10.794;2023-08-30T04:10:07;9.52;;;6.97;;
60867;SDS011;46702;48.370;10.794;2023-08-30T04:12:34;9.98;;;7.38;;
60867;SDS011;46702;48.370;10.794;2023-08-30T04:15:03;10.32;;;6.75;;
60867;SDS011;46702;48.370;10.794;2023-08-30T04:17:29;10.65;;;6.93;;
60867;SDS011;46702;48.370;10.794;2023-08-30T04:19:55;8.43;;;6.72;;
60867;SDS011;46702;48.370;10.794;2023-08-30T04:22:20;9.85;;;7.75;;
60867;SDS011;46702;48.370;10.794;2023-08-30T04:24:46;10.23;;;7.00;;
60867;SDS011;46702;48.370;10.794;2023-08-30T04:27:12;10.68;;;6.80;;
60867;SDS011;46702;48.370;10.794;2023-08-30T04:29:39;11.45;;;7.72;;
60867;SDS011;46702;48.370;10.794;2023-08-30T04:32:05;9.35;;;7.20;;
60867;SDS011;46702;48.370;10.794;2023-08-30T04:34:31;10.23;;;7.03;;
60867;SDS011;46702;48.370;10.794;2023-08-30T04:36:57;9.55;;;7.07;;
60867;SDS011;46702;48.370;10.794;2023-08-30T04:39:23;8.73;;;6.85;;
60867;SDS011;46702;48.370;10.794;2023-08-30T04:41:49;9.73;;;7.28;;
60867;SDS011;46702;48.370;10.794;2023-08-30T04:44:14;9.70;;;7.05;;
60867;SDS011;46702;48.370;10.794;2023-08-30T04:46:41;9.45;;;6.97;;
60867;SDS011;46702;48.370;10.794;2023-08-30T04:49:06;10.40;;;6.90;;
60867;SDS011;46702;48.370;10.794;2023-08-30T04:51:32;10.85;;;7.32;;
60867;SDS011;46702;48.370;10.794;2023-08-30T04:53:58;9.98;;;7.18;;
60867;SDS011;46702;48.370;10.794;2023-08-30T04:56:23;10.02;;;7.70;;
60867;SDS011;46702;48.370;10.794;2023-08-30T04:58:49;12.82;;;7.75;;
60867;SDS011;46702;48.370;10.794;2023-08-30T05:01:15;11.40;;;7.90;;
60867;SDS011;46702;48.370;10.794;2023-08-30T05:03:41;12.05;;;7.43;;
60867;SDS011;46702;48.370;10.794;2023-08-30T05:06:07;11.30;;;8.32;;
60867;SDS011;46702;48.370;10.794;2023-08-30T05:08:32;9.88;;;7.20;;
60867;SDS011;46702;48.370;10.794;2023-08-30T05:10:58;11.55;;;7.60;;
60867;SDS011;46702;48.370;10.794;2023-08-30T05:13:24;10.32;;;7.85;;
60867;SDS011;46702;48.370;10.794;2023-08-30T05:15:49;10.68;;;7.57;;
60867;SDS011;46702;48.370;10.794;2023-08-30T05:18:15;11.23;;;7.60;;
60867;SDS011;46702;48.370;10.794;2023-08-30T05:20:41;11.73;;;7.65;;
60867;SDS011;46702;48.370;10.794;2023-08-30T05:23:06;11.50;;;7.63;;
60867;SDS011;46702;48.370;10.794;2023-08-30T05:25:32;11.55;;;8.02;;
60867;SDS011;46702;48.370;10.794;2023-08-30T05:27:58;11.02;;;7.53;;
60867;SDS011;46702;48.370;10.794;2023-08-30T05:30:23;11.55;;;7.60;;
60867;SDS011;46702;48.370;10.794;2023-08-30T05:32:49;13.18;;;8.25;;
60867;SDS011;46702;48.370;10.794;2023-08-30T05:35:14;11.32;;;7.63;;
60867;SDS011;46702;48.370;10.794;2023-08-30T05:37:40;12.52;;;8.40;;
60867;SDS011;46702;48.370;10.794;2023-08-30T05:40:06;11.82;;;7.88;;
60867;SDS011;46702;48.370;10.794;2023-08-30T05:42:32;11.60;;;8.02;;
60867;SDS011;46702;48.370;10.794;2023-08-30T05:44:58;12.55;;;8.25;;
60867;SDS011;46702;48.370;10.794;2023-08-30T05:47:24;13.75;;;8.70;;
60867;SDS011;46702;48.370;10.794;2023-08-30T05:49:49;11.70;;;8.98;;
60867;SDS011;46702;48.370;10.794;2023-08-30T05:52:15;12.43;;;8.20;;
60867;SDS011;46702;48.370;10.794;2023-08-30T05:54:41;12.75;;;8.23;;
60867;SDS011;46702;48.370;10.794;2023-08-30T05:57:07;12.32;;;8.45;;
60867;SDS011;46702;48.370;10.794;2023-08-30T05:59:33;13.23;;;8.18;;
60867;SDS011;46702;48.370;10.794;2023-08-30T06:02:00;13.05;;;8.35;;
60867;SDS011;46702;48.370;10.794;2023-08-30T06:04:27;11.90;;;8.38;;
60867;SDS011;46702;48.370;10.794;2023-08-30T06:06:53;13.88;;;8.98;;
60867;SDS011;46702;48.370;10.794;2023-08-30T06:09:21;13.35;;;8.07;;
60867;SDS011;46702;48.370;10.794;2023-08-30T06:11:47;12.15;;;8.95;;
60867;SDS011;46702;48.370;10.794;2023-08-30T06:14:14;13.88;;;9.02;;
60867;SDS011;46702;48.370;10.794;2023-08-30T06:16:40;10.98;;;8.35;;
60867;SDS011;46702;48.370;10.794;2023-08-30T06:19:10;11.90;;;9.00;;
60867;SDS011;46702;48.370;10.794;2023-08-30T06:21:36;16.20;;;9.75;;
60867;SDS011;46702;48.370;10.794;2023-08-30T06:24:02;14.23;;;8.77;;
60867;SDS011;46702;48.370;10.794;2023-08-30T06:26:29;11.82;;;8.68;;
60867;SDS011;46702;48.370;10.794;2023-08-30T06:28:55;12.88;;;8.55;;
60867;SDS011;46702;48.370;10.794;2023-08-30T06:31:22;12.85;;;8.68;;
60867;SDS011;46702;48.370;10.794;2023-08-30T06:33:48;13.32;;;9.02;;
60867;SDS011;46702;48.370;10.794;2023-08-30T06:36:16;12.90;;;8.98;;
60867;SDS011;46702;48.370;10.794;2023-08-30T06:38:42;14.35;;;9.32;;
60867;SDS011;46702;48.370;10.794;2023-08-30T06:41:09;12.23;;;8.55;;
60867;SDS011;46702;48.370;10.794;2023-08-30T06:43:34;13.05;;;9.38;;
60867;SDS011;46702;48.370;10.794;2023-08-30T06:46:00;13.60;;;9.23;;
60867;SDS011;46702;48.370;10.794;2023-08-30T06:48:26;11.20;;;8.63;;
60867;SDS011;46702;48.370;10.794;2023-08-30T06:50:51;12.15;;;8.30;;
60867;SDS011;46702;48.370;10.794;2023-08-30T06:53:17;12.38;;;9.15;;
60867;SDS011;46702;48.370;10.794;2023-08-30T06:55:43;11.55;;;8.52;;
60867;SDS011;46702;48.370;10.794;2023-08-30T06:58:08;14.98;;;8.80;;
60867;SDS011;46702;48.370;10.794;2023-08-30T07:00:34;13.93;;;8.90;;
60867;SDS011;46702;48.370;10.794;2023-08-30T07:02:59;12.52;;;8.57;;
60867;SDS011;46702;48.370;10.794;2023-08-30T07:05:25;13.35;;;8.45;;
60867;SDS011;46702;48.370;10.794;2023-08-30T07:07:51;14.13;;;8.70;;
60867;SDS011;46702;48.370;10.794;2023-08-30T07:10:16;12.13;;;8.00;;
60867;SDS011;46702;48.370;10.794;2023-08-30T07:12:42;11.18;;;8.15;;
60867;SDS011;46702;48.370;10.794;2023-08-30T07:15:08;13.90;;;9.77;;
60867;SDS011;46702;48.370;10.794;2023-08-30T07:17:34;14.07;;;9.00;;
60867;SDS011;46702;48.370;10.794;2023-08-30T07:20:00;14.60;;;8.57;;
60867;SDS011;46702;48.370;10.794;2023-08-30T07:22:26;12.85;;;8.73;;
60867;SDS011;46702;48.370;10.794;2023-08-30T07:24:52;13.85;;;8.93;;
60867;SDS011;46702;48.370;10.794;2023-08-30T07:27:17;12.70;;;8.70;;
60867;SDS011;46702;48.370;10.794;2023-08-30T07:29:43;12.20;;;9.00;;
60867;SDS011;46702;48.370;10.794;2023-08-30T07:32:09;11.35;;;7.88;;
60867;SDS011;46702;48.370;10.794;2023-08-30T07:34:35;10.93;;;7.50;;
60867;SDS011;46702;48.370;10.794;2023-08-30T07:37:01;12.38;;;8.82;;
60867;SDS011;46702;48.370;10.794;2023-08-30T07:39:27;10.27;;;7.63;;
60867;SDS011;46702;48.370;10.794;2023-08-30T07:41:52;11.38;;;8.40;;
60867;SDS011;46702;48.370;10.794;2023-08-30T07:44:18;10.57;;;7.72;;
60867;SDS011;46702;48.370;10.794;2023-08-30T07:46:45;11.43;;;8.05;;
60867;SDS011;46702;48.370;10.794;2023-08-30T07:49:11;10.18;;;8.02;;
60867;SDS011;46702;48.370;10.794;2023-08-30T07:51:36;9.30;;;6.95;;
60867;SDS011;46702;48.370;10.794;2023-08-30T07:54:02;10.38;;;7.70;;
60867;SDS011;46702;48.370;10.794;2023-08-30T07:56:27;8.48;;;6.90;;
60867;SDS011;46702;48.370;10.794;2023-08-30T07:58:54;9.20;;;6.70;;
60867;SDS011;46702;48.370;10.794;2023-08-30T08:01:20;9.40;;;7.15;;
60867;SDS011;46702;48.370;10.794;2023-08-30T08:03:45;8.63;;;7.03;;
60867;SDS011;46702;48.370;10.794;2023-08-30T08:06:12;10.15;;;6.70;;
60867;SDS011;46702;48.370;10.794;2023-08-30T08:08:37;10.32;;;7.15;;
60867;SDS011;46702;48.370;10.794;2023-08-30T08:11:03;8.98;;;6.60;;
60867;SDS011;46702;48.370;10.794;2023-08-30T08:13:29;8.95;;;7.22;;
60867;SDS011;46702;48.370;10.794;2023-08-30T08:15:58;10.20;;;7.50;;
60867;SDS011;46702;48.370;10.794;2023-08-30T08:18:23;11.70;;;6.85;;
60867;SDS011;46702;48.370;10.794;2023-08-30T08:20:49;7.60;;;6.20;;
60867;SDS011;46702;48.370;10.794;2023-08-30T08:23:15;8.20;;;6.53;;
60867;SDS011;46702;48.370;10.794;2023-08-30T08:25:41;8.07;;;6.88;;
60867;SDS011;46702;48.370;10.794;2023-08-30T08:28:06;9.75;;;7.13;;
60867;SDS011;46702;48.370;10.794;2023-08-30T08:30:32;8.38;;;6.13;;
60867;SDS011;46702;48.370;10.794;2023-08-30T08:32:58;7.30;;;6.10;;
60867;SDS011;46702;48.370;10.794;2023-08-30T08:35:24;9.70;;;6.75;;
60867;SDS011;46702;48.370;10.794;2023-08-30T08:37:50;8.68;;;6.47;;
60867;SDS011;46702;48.370;10.794;2023-08-30T08:40:16;8.07;;;6.35;;
60867;SDS011;46702;48.370;10.794;2023-08-30T08:42:41;8.18;;;6.07;;
60867;SDS011;46702;48.370;10.794;2023-08-30T08:45:08;8.45;;;6.63;;
60867;SDS011;46702;48.370;10.794;2023-08-30T08:47:36;6.38;;;5.63;;
60867;SDS011;46702;48.370;10.794;2023-08-30T08:50:03;6.95;;;5.80;;
60867;SDS011;46702;48.370;10.794;2023-08-30T08:52:29;7.18;;;6.30;;
60867;SDS011;46702;48.370;10.794;2023-08-30T08:54:55;7.93;;;5.88;;
60867;SDS011;46702;48.370;10.794;2023-08-30T08:57:24;6.93;;;6.00;;
60867;SDS011;46702;48.370;10.794;2023-08-30T08:59:51;7.45;;;5.65;;
60867;SDS011;46702;48.370;10.794;2023-08-30T09:02:17;6.63;;;5.90;;
60867;SDS011;46702;48.370;10.794;2023-08-30T09:04:42;7.57;;;5.57;;
60867;SDS011;46702;48.370;10.794;2023-08-30T09:07:09;5.18;;;4.65;;
60867;SDS011;46702;48.370;10.794;2023-08-30T09:09:36;6.72;;;5.50;;
60867;SDS011;46702;48.370;10.794;2023-08-30T09:12:03;7.63;;;5.95;;
60867;SDS011;46702;48.370;10.794;2023-08-30T09:14:29;6.68;;;5.10;;
60867;SDS011;46702;48.370;10.794;2023-08-30T09:19:25;5.40;;;4.85;;
60867;SDS011;46702;48.370;10.794;2023-08-30T09:21:55;5.22;;;4.72;;
60867;SDS011;46702;48.370;10.794;2023-08-30T09:24:24;5.78;;;5.05;;
60867;SDS011;46702;48.370;10.794;2023-08-30T09:26:51;6.43;;;5.40;;
60867;SDS011;46702;48.370;10.794;2023-08-30T09:31:44;4.90;;;4.03;;
60867;SDS011;46702;48.370;10.794;2023-08-30T09:34:11;5.93;;;5.32;;
60867;SDS011;46702;48.370;10.794;2023-08-30T09:36:37;6.57;;;4.90;;
60867;SDS011;46702;48.370;10.794;2023-08-30T09:39:06;4.95;;;4.45;;
60867;SDS011;46702;48.370;10.794;2023-08-30T09:41:34;6.72;;;5.72;;
60867;SDS011;46702;48.370;10.794;2023-08-30T09:44:10;5.28;;;4.50;;
60867;SDS011;46702;48.370;10.794;2023-08-30T09:46:39;5.72;;;4.40;;
60867;SDS011;46702;48.370;10.794;2023-08-30T09:49:17;7.32;;;4.40;;
60867;SDS011;46702;48.370;10.794;2023-08-30T09:51:46;5.03;;;3.85;;
60867;SDS011;46702;48.370;10.794;2023-08-30T09:54:15;4.50;;;4.10;;
60867;SDS011;46702;48.370;10.794;2023-08-30T09:56:43;5.75;;;3.83;;
60867;SDS011;46702;48.370;10.794;2023-08-30T09:59:09;10.43;;;3.88;;
60867;SDS011;46702;48.370;10.794;2023-08-30T10:01:42;5.85;;;4.40;;
60867;SDS011;46702;48.370;10.794;2023-08-30T10:04:11;5.90;;;4.72;;
60867;SDS011;46702;48.370;10.794;2023-08-30T10:06:37;3.50;;;3.20;;
60867;SDS011;46702;48.370;10.794;2023-08-30T10:09:04;4.90;;;3.58;;
60867;SDS011;46702;48.370;10.794;2023-08-30T10:11:33;3.80;;;3.47;;
60867;SDS011;46702;48.370;10.794;2023-08-30T10:14:02;4.63;;;3.33;;
60867;SDS011;46702;48.370;10.794;2023-08-30T10:16:30;3.38;;;3.08;;
60867;SDS011;46702;48.370;10.794;2023-08-30T10:19:11;2.53;;;2.33;;
60867;SDS011;46702;48.370;10.794;2023-08-30T10:21:42;3.72;;;2.63;;
60867;SDS011;46702;48.370;10.794;2023-08-30T10:24:12;3.50;;;2.80;;
60867;SDS011;46702;48.370;10.794;2023-08-30T10:26:41;3.33;;;3.03;;
60867;SDS011;46702;48.370;10.794;2023-08-30T10:31:37;3.28;;;2.95;;
60867;SDS011;46702;48.370;10.794;2023-08-30T10:34:11;4.40;;;2.67;;
60867;SDS011;46702;48.370;10.794;2023-08-30T10:36:41;2.85;;;2.20;;
60867;SDS011;46702;48.370;10.794;2023-08-30T10:39:11;2.50;;;2.30;;
60867;SDS011;46702;48.370;10.794;2023-08-30T10:41:38;1.80;;;1.70;;
60867;SDS011;46702;48.370;10.794;2023-08-30T10:44:18;2.10;;;2.00;;
60867;SDS011;46702;48.370;10.794;2023-08-30T10:49:18;2.15;;;1.90;;
60867;SDS011;46702;48.370;10.794;2023-08-30T10:51:43;2.70;;;2.10;;
60867;SDS011;46702;48.370;10.794;2023-08-30T10:54:18;2.78;;;2.05;;
60867;SDS011;46702;48.370;10.794;2023-08-30T10:56:54;2.33;;;1.60;;
60867;SDS011;46702;48.370;10.794;2023-08-30T10:59:22;2.45;;;2.10;;
60867;SDS011;46702;48.370;10.794;2023-08-30T11:01:48;2.53;;;2.33;;
60867;SDS011;46702;48.370;10.794;2023-08-30T11:04:16;2.40;;;2.00;;
60867;SDS011;46702;48.370;10.794;2023-08-30T11:06:43;3.60;;;2.58;;
60867;SDS011;46702;48.370;10.794;2023-08-30T11:09:12;7.38;;;2.83;;
60867;SDS011;46702;48.370;10.794;2023-08-30T11:11:39;2.70;;;2.50;;
60867;SDS011;46702;48.370;10.794;2023-08-30T11:14:08;2.50;;;2.30;;
60867;SDS011;46702;48.370;10.794;2023-08-30T11:16:35;2.80;;;2.58;;
60867;SDS011;46702;48.370;10.794;2023-08-30T11:19:02;2.65;;;2.22;;
60867;SDS011;46702;48.370;10.794;2023-08-30T11:21:32;3.20;;;2.33;;
60867;SDS011;46702;48.370;10.794;2023-08-30T11:24:06;2.85;;;2.65;;
60867;SDS011;46702;48.370;10.794;2023-08-30T11:26:32;2.22;;;2.08;;
60867;SDS011;46702;48.370;10.794;2023-08-30T11:29:07;2.40;;;2.20;;
60867;SDS011;46702;48.370;10.794;2023-08-30T11:31:34;2.17;;;2.00;;
60867;SDS011;46702;48.370;10.794;2023-08-30T11:34:00;2.28;;;2.13;;
60867;SDS011;46702;48.370;10.794;2023-08-30T11:36:27;2.28;;;2.08;;
60867;SDS011;46702;48.370;10.794;2023-08-30T11:41:20;1.90;;;1.70;;
60867;SDS011;46702;48.370;10.794;2023-08-30T11:43:47;2.22;;;1.52;;
60867;SDS011;46702;48.370;10.794;2023-08-30T11:46:13;1.95;;;1.73;;
60867;SDS011;46702;48.370;10.794;2023-08-30T11:48:42;2.40;;;2.20;;
60867;SDS011;46702;48.370;10.794;2023-08-30T11:51:08;2.05;;;1.92;;
60867;SDS011;46702;48.370;10.794;2023-08-30T11:53:35;1.88;;;1.77;;
60867;SDS011;46702;48.370;10.794;2023-08-30T11:56:02;1.67;;;1.58;;
60867;SDS011;46702;48.370;10.794;2023-08-30T11:58:33;2.53;;;1.73;;
60867;SDS011;46702;48.370;10.794;2023-08-30T12:01:03;3.60;;;1.98;;
60867;SDS011;46702;48.370;10.794;2023-08-30T12:03:30;2.13;;;1.85;;
60867;SDS011;46702;48.370;10.794;2023-08-30T12:05:57;1.93;;;1.70;;
60867;SDS011;46702;48.370;10.794;2023-08-30T12:08:30;1.85;;;1.75;;
60867;SDS011;46702;48.370;10.794;2023-08-30T12:10:56;2.00;;;1.50;;
60867;SDS011;46702;48.370;10.794;2023-08-30T12:15:48;3.15;;;1.92;;
60867;SDS011;46702;48.370;10.794;2023-08-30T12:18:15;2.92;;;2.10;;
60867;SDS011;46702;48.370;10.794;2023-08-30T12:20:50;2.30;;;2.10;;
60867;SDS011;46702;48.370;10.794;2023-08-30T12:23:24;3.10;;;2.20;;
60867;SDS011;46702;48.370;10.794;2023-08-30T12:28:29;2.13;;;1.80;;
60867;SDS011;46702;48.370;10.794;2023-08-30T12:31:01;2.47;;;1.95;;
60867;SDS011;46702;48.370;10.794;2023-08-30T12:33:32;1.77;;;1.67;;
60867;SDS011;46702;48.370;10.794;2023-08-30T12:35:59;1.88;;;1.77;;
60867;SDS011;46702;48.370;10.794;2023-08-30T12:38:25;1.90;;;1.80;;
60867;SDS011;46702;48.370;10.794;2023-08-30T12:40:52;2.47;;;1.83;;
60867;SDS011;46702;48.370;10.794;2023-08-30T12:43:19;1.80;;;1.70;;
60867;SDS011;46702;48.370;10.794;2023-08-30T12:45:46;1.77;;;1.50;;
60867;SDS011;46702;48.370;10.794;2023-08-30T12:48:13;1.70;;;1.60;;
60867;SDS011;46702;48.370;10.794;2023-08-30T12:50:40;1.80;;;1.70;;
60867;SDS011;46702;48.370;10.794;2023-08-30T12:53:07;1.60;;;1.50;;
60867;SDS011;46702;48.370;10.794;2023-08-30T12:55:33;2.15;;;1.70;;
60867;SDS011;46702;48.370;10.794;2023-08-30T12:58:00;1.88;;;1.70;;
60867;SDS011;46702;48.370;10.794;2023-08-30T13:00:26;1.67;;;1.58;;
60867;SDS011;46702;48.370;10.794;2023-08-30T13:02:52;2.17;;;1.70;;
60867;SDS011;46702;48.370;10.794;2023-08-30T13:05:18;1.73;;;1.63;;
60867;SDS011;46702;48.370;10.794;2023-08-30T13:07:44;1.70;;;1.60;;
60867;SDS011;46702;48.370;10.794;2023-08-30T13:10:10;1.52;;;1.42;;
60867;SDS011;46702;48.370;10.794;2023-08-30T13:12:36;2.08;;;1.60;;
60867;SDS011;46702;48.370;10.794;2023-08-30T13:15:02;1.55;;;1.45;;
60867;SDS011;46702;48.370;10.794;2023-08-30T13:17:29;1.83;;;1.50;;
60867;SDS011;46702;48.370;10.794;2023-08-30T13:19:54;2.38;;;1.63;;
60867;SDS011;46702;48.370;10.794;2023-08-30T13:22:21;1.43;;;1.30;;
60867;SDS011;46702;48.370;10.794;2023-08-30T13:24:47;1.67;;;1.50;;
60867;SDS011;46702;48.370;10.794;2023-08-30T13:27:13;1.38;;;1.33;;
60867;SDS011;46702;48.370;10.794;2023-08-30T13:29:38;1.52;;;1.42;;
60867;SDS011;46702;48.370;10.794;2023-08-30T13:32:04;1.65;;;1.55;;
60867;SDS011;46702;48.370;10.794;2023-08-30T13:34:30;1.38;;;1.23;;
60867;SDS011;46702;48.370;10.794;2023-08-30T13:36:55;1.17;;;1.08;;
60867;SDS011;46702;48.370;10.794;2023-08-30T13:39:21;1.30;;;1.20;;
60867;SDS011;46702;48.370;10.794;2023-08-30T13:41:47;1.50;;;1.20;;
60867;SDS011;46702;48.370;10.794;2023-08-30T13:44:13;1.33;;;1.23;;
60867;SDS011;46702;48.370;10.794;2023-08-30T13:46:39;2.67;;;1.33;;
60867;SDS011;46702;48.370;10.794;2023-08-30T13:49:04;1.50;;;1.40;;
60867;SDS011;46702;48.370;10.794;2023-08-30T13:51:30;3.15;;;1.15;;
60867;SDS011;46702;48.370;10.794;2023-08-30T13:53:55;1.88;;;1.15;;
60867;SDS011;46702;48.370;10.794;2023-08-30T13:56:21;1.55;;;1.40;;
60867;SDS011;46702;48.370;10.794;2023-08-30T13:58:48;1.60;;;1.50;;
60867;SDS011;46702;48.370;10.794;2023-08-30T14:01:15;1.40;;;1.30;;
60867;SDS011;46702;48.370;10.794;2023-08-30T14:03:42;1.48;;;1.40;;
60867;SDS011;46702;48.370;10.794;2023-08-30T14:06:08;1.60;;;1.50;;
60867;SDS011;46702;48.370;10.794;2023-08-30T14:08:34;1.50;;;1.40;;
60867;SDS011;46702;48.370;10.794;2023-08-30T14:11:01;1.70;;;1.35;;
60867;SDS011;46702;48.370;10.794;2023-08-30T14:13:27;2.53;;;1.38;;
60867;SDS011;46702;48.370;10.794;2023-08-30T14:15:57;1.67;;;1.58;;
60867;SDS011;46702;48.370;10.794;2023-08-30T14:18:29;2.55;;;1.63;;
60867;SDS011;46702;48.370;10.794;2023-08-30T14:20:56;1.55;;;1.45;;
60867;SDS011;46702;48.370;10.794;2023-08-30T14:23:26;3.07;;;1.40;;
60867;SDS011;46702;48.370;10.794;2023-08-30T14:25:57;1.58;;;1.40;;
60867;SDS011;46702;48.370;10.794;2023-08-30T14:28:28;1.50;;;1.35;;
60867;SDS011;46702;48.370;10.794;2023-08-30T14:30:55;1.30;;;1.30;;
60867;SDS011;46702;48.370;10.794;2023-08-30T14:33:21;1.60;;;1.50;;
60867;SDS011;46702;48.370;10.794;2023-08-30T14:35:48;1.42;;;1.40;;
60867;SDS011;46702;48.370;10.794;2023-08-30T14:38:14;2.05;;;1.52;;
60867;SDS011;46702;48.370;10.794;2023-08-30T14:40:40;2.05;;;1.52;;
60867;SDS011;46702;48.370;10.794;2023-08-30T14:43:06;1.77;;;1.67;;
60867;SDS011;46702;48.370;10.794;2023-08-30T14:45:32;2.30;;;1.42;;
60867;SDS011;46702;48.370;10.794;2023-08-30T14:47:58;1.13;;;1.13;;
60867;SDS011;46702;48.370;10.794;2023-08-30T14:50:24;1.60;;;1.50;;
60867;SDS011;46702;48.370;10.794;2023-08-30T14:52:51;3.45;;;1.50;;